Time;durP1;ratioP1;P1;durP2;ratioP2;P2;SDS_P1;SDS_P2;PMS_P1;PMS_P2;Temp;Humidity;BMP_temperature;BMP_pressure;BME280_temperature;BME280_humidity;BME280_pressure;Samples;Min_cycle;Max_cycle;Signal;HPM_P1;HPM_P2
2023/12/15 00:03:27;;;;;;;6.63;2.40;;;;;;;19.49;100.00;101200.69;10596542;27;20130;-86
2023/12/15 00:08:51;;;;;;;11.05;3.15;;;;;;;19.52;100.00;101199.75;10577923;27;20048;-85
2023/12/15 00:14:14;;;;;;;12.68;3.60;;;;;;;19.44;100.00;101210.53;10603339;27;20043;-84
2023/12/15 00:19:39;;;;;;;9.27;2.25;;;;;;;19.49;100.00;101232.84;10580437;27;20053;-84
2023/12/15 00:25:02;;;;;;;9.43;2.55;;;;;;;19.55;100.00;101218.47;10563726;27;20055;-83
2023/12/15 00:30:27;;;;;;;10.27;2.88;;;;;;;19.57;100.00;101217.53;10583279;27;20409;-84
2023/12/15 00:35:53;;;;;;;13.98;3.20;;;;;;;19.60;100.00;101198.75;10559228;27;20055;-86
2023/12/15 00:41:16;;;;;;;9.60;2.55;;;;;;;19.68;100.00;101228.09;10583920;27;20047;-85
2023/12/15 00:46:40;;;;;;;7.03;2.45;;;;;;;19.73;100.00;101215.53;10567768;27;20108;-84
2023/12/15 00:52:07;;;;;;;9.73;2.28;;;;;;;19.79;100.00;101240.44;10533588;28;20048;-83
2023/12/15 00:57:31;;;;;;;9.90;2.67;;;;;;;19.83;100.00;101250.19;10518470;28;20036;-86
2023/12/15 01:02:54;;;;;;;6.25;2.28;;;;;;;19.95;100.00;101254.50;10529257;28;20052;-84
2023/12/15 01:08:21;;;;;;;10.25;2.83;;;;;;;20.01;100.00;101246.38;10519249;28;20047;-84
2023/12/15 01:13:48;;;;;;;7.05;2.47;;;;;;;19.94;100.00;101235.75;10518499;28;20040;-83
2023/12/15 01:19:11;;;;;;;11.65;3.50;;;;;;;19.90;100.00;101222.38;10532058;28;20139;-84
2023/12/15 01:24:36;;;;;;;8.32;2.05;;;;;;;19.89;100.00;101225.09;10532965;28;20582;-85
2023/12/15 01:29:59;;;;;;;7.70;2.28;;;;;;;19.93;100.00;101212.53;10518984;28;20515;-85
2023/12/15 01:35:25;;;;;;;11.20;2.17;;;;;;;19.94;100.00;101214.31;10532272;28;20576;-84
2023/12/15 01:40:52;;;;;;;5.60;1.98;;;;;;;19.84;100.00;101217.13;10510697;28;20043;-83
2023/12/15 01:46:14;;;;;;;4.07;1.85;;;;;;;19.89;100.00;101207.22;10517533;28;20055;-86
2023/12/15 01:51:37;;;;;;;6.35;2.20;;;;;;;19.93;100.00;101213.44;10522151;28;20500;-83
2023/12/15 01:57:02;;;;;;;8.10;2.70;;;;;;;19.89;100.00;101215.25;10525879;28;20048;-86
2023/12/15 02:02:25;;;;;;;10.70;2.42;;;;;;;20.01;100.00;101226.72;10538533;28;20060;-83
2023/12/15 02:07:48;;;;;;;7.32;2.45;;;;;;;20.08;100.00;101215.88;10539161;28;20048;-84
2023/12/15 02:13:12;;;;;;;7.45;2.30;;;;;;;20.04;100.00;101200.72;10525121;28;20385;-84
2023/12/15 02:18:35;;;;;;;8.02;3.05;;;;;;;20.06;100.00;101208.75;10517599;28;20048;-82
2023/12/15 02:23:59;;;;;;;7.47;1.95;;;;;;;20.05;100.00;101201.63;10525026;28;20136;-83
2023/12/15 02:29:22;;;;;;;12.63;2.78;;;;;;;20.09;100.00;101203.31;10513952;28;20072;-82
2023/12/15 02:34:44;;;;;;;7.43;2.80;;;;;;;20.14;100.00;101198.78;10527594;28;20048;-83
2023/12/15 02:40:10;;;;;;;9.98;2.70;;;;;;;20.18;100.00;101201.38;10524105;28;20044;-85
2023/12/15 02:45:33;;;;;;;4.80;1.83;;;;;;;20.18;100.00;101185.31;10538637;28;20461;-83
2023/12/15 02:50:55;;;;;;;8.63;2.42;;;;;;;20.14;100.00;101183.59;10537312;28;20498;-84
2023/12/15 02:56:20;;;;;;;9.43;2.42;;;;;;;20.18;100.00;101182.63;10537889;28;20097;-82
2023/12/15 03:01:43;;;;;;;6.10;2.50;;;;;;;20.12;100.00;101188.09;10534992;28;20060;-83
2023/12/15 03:07:07;;;;;;;10.02;2.67;;;;;;;20.13;100.00;101175.56;10522505;28;20521;-83
2023/12/15 03:12:32;;;;;;;11.95;2.58;;;;;;;20.15;100.00;101173.75;10522917;28;20048;-83
2023/12/15 03:17:54;;;;;;;9.23;2.63;;;;;;;20.14;100.00;101169.31;10536003;28;20055;-84
2023/12/15 03:23:17;;;;;;;11.25;2.67;;;;;;;20.21;100.00;101169.19;10537166;28;20139;-83
2023/12/15 03:28:41;;;;;;;4.32;2.25;;;;;;;20.20;100.00;101182.59;10522141;28;20044;-83
2023/12/15 03:34:03;;;;;;;12.75;3.42;;;;;;;20.33;100.00;101188.66;10536100;28;20040;-83
2023/12/15 03:39:26;;;;;;;7.45;2.40;;;;;;;20.37;100.00;101198.41;10535392;28;20085;-83
2023/12/15 03:44:50;;;;;;;8.63;2.35;;;;;;;20.31;100.00;101202.06;10535311;28;20085;-83
2023/12/15 03:50:12;;;;;;;8.27;2.40;;;;;;;20.30;100.00;101198.50;10559430;27;20044;-82
2023/12/15 03:55:35;;;;;;;9.32;2.47;;;;;;;20.39;100.00;101200.19;10582658;27;20739;-83
2023/12/15 04:00:59;;;;;;;7.25;2.15;;;;;;;20.34;100.00;101209.22;10562431;27;20055;-82
2023/12/15 04:06:21;;;;;;;5.30;2.40;;;;;;;20.36;100.00;101223.47;10568679;28;20831;-82
2023/12/15 04:11:44;;;;;;;8.35;2.15;;;;;;;20.33;100.00;101208.34;10565513;27;20056;-83
2023/12/15 04:17:10;;;;;;;7.22;2.03;;;;;;;20.42;100.00;101234.97;10579019;27;20047;-82
2023/12/15 04:22:33;;;;;;;7.40;2.33;;;;;;;20.40;100.00;101238.59;10596782;27;20043;-82
2023/12/15 04:27:55;;;;;;;7.95;2.22;;;;;;;20.25;100.00;101227.19;10582353;27;20092;-84
2023/12/15 04:33:19;;;;;;;6.18;2.13;;;;;;;20.27;100.00;101220.00;10598520;27;20495;-83
2023/12/15 04:38:42;;;;;;;3.83;1.73;;;;;;;20.40;100.00;101235.94;10577643;27;20078;-85
2023/12/15 04:44:04;;;;;;;5.68;1.88;;;;;;;20.32;100.00;101229.78;10578223;28;20040;-83
2023/12/15 04:49:28;;;;;;;8.57;2.63;;;;;;;20.31;100.00;101236.94;10558885;27;20504;-82
2023/12/15 04:54:50;;;;;;;7.20;1.95;;;;;;;20.33;100.00;101242.31;10590018;27;20043;-83
2023/12/15 05:00:14;;;;;;;7.93;2.25;;;;;;;20.28;100.00;101231.63;10573382;27;20055;-82
2023/12/15 05:05:38;;;;;;;8.00;2.20;;;;;;;20.18;100.00;101238.94;10597815;28;20567;-83
2023/12/15 05:11:00;;;;;;;7.28;2.20;;;;;;;20.26;100.00;101238.81;10599644;28;20492;-82
2023/12/15 05:16:23;;;;;;;10.52;2.30;;;;;;;20.25;100.00;101231.66;10579451;28;20051;-81
2023/12/15 05:21:48;;;;;;;8.43;2.72;;;;;;;20.10;100.00;101222.06;10555785;28;20062;-82
2023/12/15 05:27:14;;;;;;;4.75;2.40;;;;;;;20.10;100.00;101208.66;10567414;28;20052;-82
2023/12/15 05:32:37;;;;;;;8.90;2.65;;;;;;;20.19;100.00;101204.97;10607610;27;20059;-82
2023/12/15 05:38:06;;;;;;;12.57;2.75;;;;;;;20.22;100.00;101204.88;10602771;27;20043;-82
2023/12/15 05:43:30;;;;;;;12.70;3.83;;;;;;;20.36;100.00;101204.69;10554883;28;20115;-82
2023/12/15 05:48:53;;;;;;;9.32;3.20;;;;;;;20.34;100.00;101215.47;10575050;27;20119;-82
2023/12/15 05:54:17;;;;;;;10.10;3.28;;;;;;;20.36;100.00;101197.53;10598110;27;20061;-84
2023/12/15 05:59:40;;;;;;;6.90;3.25;;;;;;;20.49;100.00;101199.09;10599625;27;20049;-83
2023/12/15 06:05:02;;;;;;;8.75;2.80;;;;;;;20.50;100.00;101186.56;10557650;27;20039;-84
2023/12/15 06:10:26;;;;;;;18.55;3.67;;;;;;;20.57;100.00;101177.47;10578956;27;20059;-83
2023/12/15 06:15:48;;;;;;;10.95;3.10;;;;;;;20.67;100.00;101204.13;10606099;27;20051;-83
2023/12/15 06:21:20;;;;;;;5.57;2.17;;;;;;;20.79;100.00;101234.31;10597221;27;20232;-84
2023/12/15 06:26:44;;;;;;;11.00;2.97;;;;;;;20.86;100.00;101228.81;10583355;27;20062;-85
2023/12/15 06:32:08;;;;;;;7.05;2.28;;;;;;;20.88;100.00;101231.44;10562632;27;20504;-83
2023/12/15 06:37:30;;;;;;;12.73;3.53;;;;;;;20.89;100.00;101209.06;10590149;27;20059;-83
2023/12/15 06:42:54;;;;;;;8.35;3.00;;;;;;;21.00;100.00;101220.50;10590874;27;20056;-82
2023/12/15 06:48:18;;;;;;;9.60;3.28;;;;;;;21.09;100.00;101206.88;10578634;27;20058;-85
2023/12/15 06:53:42;;;;;;;11.75;2.30;;;;;;;21.28;100.00;101224.41;10575767;27;20476;-81
2023/12/15 06:59:10;;;;;;;12.70;2.77;;;;;;;22.09;100.00;101225.28;10583499;27;20185;-85
2023/12/15 07:04:41;;;;;;;7.63;2.42;;;;;;;21.86;100.00;101233.84;10582669;27;20074;-83
2023/12/15 07:10:06;;;;;;;12.10;3.42;;;;;;;21.73;100.00;101251.19;10586416;27;20036;-85
2023/12/15 07:15:39;;;;;;;4.68;2.17;;;;;;;21.91;100.00;101274.09;10603681;27;20492;-82
2023/12/15 07:21:04;;;;;;;12.80;2.78;;;;;;;22.32;100.00;101310.81;10592732;27;20074;-82
2023/12/15 07:26:28;;;;;;;13.23;4.32;;;;;;;22.98;100.00;101327.97;10578514;27;20056;-82
2023/12/15 07:31:52;;;;;;;8.90;2.70;;;;;;;23.54;100.00;101319.28;10605733;27;20142;-82
2023/12/15 07:37:15;;;;;;;16.90;5.95;;;;;;;23.69;100.00;101326.94;10581171;27;20420;-83
2023/12/15 07:42:37;;;;;;;9.20;3.20;;;;;;;23.40;100.00;101325.94;10563156;27;20115;-82
2023/12/15 07:48:03;;;;;;;20.05;10.88;;;;;;;23.64;100.00;101312.69;10578976;27;20043;-81
2023/12/15 07:53:26;;;;;;;15.82;8.98;;;;;;;23.57;100.00;101328.16;10544530;27;20047;-83
2023/12/15 07:58:50;;;;;;;16.48;9.73;;;;;;;23.82;100.00;101341.84;10578977;27;20535;-82
2023/12/15 08:04:14;;;;;;;8.38;3.80;;;;;;;24.25;100.00;101337.84;10571036;27;20784;-83
2023/12/15 08:09:39;;;;;;;15.07;8.13;;;;;;;24.11;100.00;101333.72;10559673;27;20686;-84
2023/12/15 08:15:02;;;;;;;13.35;7.20;;;;;;;25.07;100.00;101324.31;10578192;27;20052;-81
2023/12/15 08:20:26;;;;;;;7.60;2.10;;;;;;;25.02;96.15;101340.66;10575214;27;20095;-83
2023/12/15 08:25:48;;;;;;;7.13;3.88;;;;;;;24.77;96.04;101318.09;10561107;27;20109;-84
2023/12/15 08:31:11;;;;;;;12.88;6.13;;;;;;;24.86;96.87;101336.72;10590596;27;20043;-83
2023/12/15 08:36:34;;;;;;;10.40;4.90;;;;;;;24.29;100.00;101339.50;10562470;27;20051;-83
2023/12/15 08:41:57;;;;;;;8.82;2.53;;;;;;;23.82;100.00;101322.94;10549198;28;20102;-81
2023/12/15 08:47:19;;;;;;;13.13;4.68;;;;;;;23.70;100.00;101324.19;10562707;27;20615;-81
2023/12/15 08:52:44;;;;;;;17.20;10.07;;;;;;;23.66;100.00;101324.31;10565871;27;20039;-82
2023/12/15 08:58:06;;;;;;;10.80;4.80;;;;;;;23.87;100.00;101301.22;10552302;27;20040;-83
2023/12/15 09:03:29;;;;;;;7.70;2.30;;;;;;;24.66;100.00;101291.47;10569443;27;20043;-83
2023/12/15 09:08:53;;;;;;;8.07;2.30;;;;;;;24.39;100.00;101293.28;10573668;28;20802;-85
2023/12/15 09:14:16;;;;;;;10.20;2.67;;;;;;;23.94;100.00;101287.50;10586636;28;20043;-84
2023/12/15 09:19:40;;;;;;;8.80;2.08;;;;;;;23.73;100.00;101259.38;10601834;28;20043;-82
2023/12/15 09:25:05;;;;;;;12.88;2.90;;;;;;;23.40;100.00;101245.06;10569104;28;20052;-83
2023/12/15 09:30:28;;;;;;;8.95;2.42;;;;;;;23.25;100.00;101220.38;10561525;28;20043;-84
2023/12/15 09:35:53;;;;;;;10.52;2.40;;;;;;;23.02;100.00;101221.06;10586969;27;20131;-85
2023/12/15 09:41:17;;;;;;;9.10;2.30;;;;;;;23.08;100.00;101207.41;10585559;28;20043;-84
2023/12/15 09:46:43;;;;;;;11.23;2.50;;;;;;;24.25;100.00;101219.97;10598429;27;20058;-84
2023/12/15 09:52:11;;;;;;;8.10;2.13;;;;;;;25.02;96.77;101211.84;10499250;28;20394;-82
2023/12/15 09:57:36;;;;;;;10.07;2.95;;;;;;;24.18;99.50;101199.47;10510471;28;20127;-81
2023/12/15 10:03:02;;;;;;;6.88;2.13;;;;;;;24.39;100.00;101211.41;10517501;28;20064;-83
2023/12/15 10:08:25;;;;;;;9.70;3.10;;;;;;;25.59;88.07;101196.22;10503634;28;20055;-84
2023/12/15 10:13:49;;;;;;;8.93;2.22;;;;;;;25.31;86.69;101189.13;10521222;28;20085;-83
2023/12/15 10:19:15;;;;;;;9.15;2.00;;;;;;;24.39;94.98;101201.50;10518730;28;20052;-81
2023/12/15 10:24:39;;;;;;;10.27;2.47;;;;;;;24.14;100.00;101181.66;10523470;28;20122;-84
2023/12/15 10:30:05;;;;;;;5.53;2.38;;;;;;;25.10;92.26;101189.94;10535471;28;20044;-82
2023/12/15 10:35:29;;;;;;;10.93;3.03;;;;;;;25.19;85.69;101172.50;10536676;28;20040;-87
2023/12/15 10:40:52;;;;;;;7.20;2.38;;;;;;;23.83;94.66;101169.16;10494916;28;20094;-87
2023/12/15 10:46:20;;;;;;;7.78;2.30;;;;;;;23.54;100.00;101187.22;10517564;28;20044;-83
2023/12/15 10:51:44;;;;;;;8.40;2.28;;;;;;;23.69;100.00;101175.94;10536092;28;20048;-82
2023/12/15 10:57:07;;;;;;;10.07;2.10;;;;;;;23.58;100.00;101162.78;10507266;28;20406;-83
2023/12/15 11:02:40;;;;;;;9.52;2.72;;;;;;;23.50;100.00;101170.22;10495115;28;20052;-83
2023/12/15 11:08:10;;;;;;;4.32;1.92;;;;;;;23.72;100.00;101174.03;10508745;28;20067;-84
2023/12/15 11:14:01;;;;;;;7.47;2.20;;;;;;;23.60;100.00;101174.41;10487124;28;20055;-82
2023/12/15 11:19:26;;;;;;;9.30;2.40;;;;;;;23.64;100.00;101178.78;10537537;28;20699;-84
2023/12/15 11:24:50;;;;;;;8.52;2.42;;;;;;;23.55;100.00;101168.28;10536508;28;20044;-83
2023/12/15 11:30:36;;;;;;;7.72;4.18;;;;;;;23.34;100.00;101172.50;10537492;28;20060;-82
2023/12/15 11:36:02;;;;;;;11.18;2.75;;;;;;;23.32;100.00;101173.47;10536475;28;20097;-81
2023/12/15 11:41:27;;;;;;;9.80;2.88;;;;;;;23.16;100.00;101153.31;10514884;28;20051;-82
2023/12/15 11:46:50;;;;;;;5.85;2.15;;;;;;;23.16;100.00;101158.69;10521492;28;20185;-82
2023/12/15 11:52:15;;;;;;;10.02;2.58;;;;;;;23.16;100.00;101131.75;10534592;28;20105;-83
2023/12/15 11:57:37;;;;;;;8.70;2.38;;;;;;;23.09;100.00;101119.41;10517143;28;20062;-83
2023/12/15 12:03:00;;;;;;;7.30;2.53;;;;;;;22.94;100.00;101115.34;10531338;28;20097;-84
2023/12/15 12:08:24;;;;;;;5.45;2.78;;;;;;;22.83;100.00;101104.91;10518884;28;20103;-85
2023/12/15 12:14:03;;;;;;;6.32;2.40;;;;;;;22.58;100.00;101087.63;10521244;28;20079;-87
2023/12/15 12:19:26;;;;;;;9.50;2.60;;;;;;;22.27;100.00;101087.63;10495858;28;20044;-85
2023/12/15 12:24:53;;;;;;;7.28;2.70;;;;;;;22.10;100.00;101106.03;10532595;28;20744;-83
2023/12/15 12:30:17;;;;;;;7.93;2.25;;;;;;;22.01;100.00;101104.47;10534149;28;20453;-84
2023/12/15 12:35:40;;;;;;;6.03;1.85;;;;;;;22.04;100.00;101116.97;10510114;28;20048;-83
2023/12/15 12:41:07;;;;;;;10.80;2.65;;;;;;;22.04;100.00;101093.63;10518722;28;20059;-84
2023/12/15 12:46:32;;;;;;;10.25;2.65;;;;;;;21.97;100.00;101135.06;10525773;28;20039;-85
2023/12/15 12:51:54;;;;;;;8.55;1.92;;;;;;;22.01;100.00;101142.09;10516878;28;20055;-80
2023/12/15 12:57:21;;;;;;;8.00;1.77;;;;;;;22.02;100.00;101122.38;10510010;28;20044;-82
2023/12/15 13:02:43;;;;;;;8.63;1.95;;;;;;;21.82;100.00;101132.69;10516843;28;20127;-84
2023/12/15 13:08:06;;;;;;;8.43;2.08;;;;;;;21.88;100.00;101146.88;10517614;28;20135;-85
2023/12/15 13:13:36;;;;;;;5.57;1.80;;;;;;;22.03;100.00;101164.47;10531390;28;20584;-79
2023/12/15 13:18:58;;;;;;;5.18;1.83;;;;;;;22.10;100.00;101171.47;10523789;28;20112;-84
2023/12/15 13:24:22;;;;;;;6.97;2.13;;;;;;;21.88;100.00;101183.63;10516297;28;20289;-83
2023/12/15 13:29:48;;;;;;;7.72;2.65;;;;;;;21.87;100.00;101180.06;10515933;28;20048;-84
2023/12/15 13:35:11;;;;;;;6.35;2.22;;;;;;;21.81;100.00;101171.25;10531545;28;20079;-87
2023/12/15 13:40:34;;;;;;;9.68;2.60;;;;;;;21.57;100.00;101161.97;10528728;28;20044;-85
2023/12/15 13:45:58;;;;;;;6.80;2.25;;;;;;;21.41;100.00;101149.81;10538149;28;20040;-79
2023/12/15 13:51:21;;;;;;;8.75;1.88;;;;;;;21.20;100.00;101147.63;10545342;28;20051;-78
2023/12/15 13:56:43;;;;;;;6.35;1.58;;;;;;;21.11;100.00;101134.34;10566688;28;20565;-78
2023/12/15 14:02:07;;;;;;;5.72;2.28;;;;;;;20.97;100.00;101126.59;10546754;28;20516;-80
2023/12/15 14:07:30;;;;;;;9.68;2.38;;;;;;;20.88;100.00;101126.75;10549802;28;20055;-87
2023/12/15 14:12:53;;;;;;;8.45;2.17;;;;;;;20.79;100.00;101121.59;10571588;28;20127;-79
2023/12/15 14:18:17;;;;;;;6.68;1.92;;;;;;;20.69;100.00;101112.84;10564923;28;20058;-82
2023/12/15 14:23:40;;;;;;;11.13;2.95;;;;;;;20.63;100.00;101118.34;10579206;28;20035;-91
2023/12/15 14:29:03;;;;;;;6.90;2.22;;;;;;;20.54;100.00;101124.78;10574728;28;20624;-80
2023/12/15 14:34:27;;;;;;;6.55;2.15;;;;;;;20.45;100.00;101146.41;10575340;28;20074;-87
2023/12/15 14:39:50;;;;;;;8.05;2.58;;;;;;;20.50;100.00;101170.47;10556741;28;20168;-88
2023/12/15 14:45:12;;;;;;;5.18;2.38;;;;;;;20.45;100.00;101197.38;10567182;28;20051;-83
2023/12/15 14:50:37;;;;;;;5.30;2.67;;;;;;;20.56;100.00;101213.28;10559974;27;20051;-85
2023/12/15 14:56:00;;;;;;;9.23;2.60;;;;;;;20.46;100.00;101209.88;10542359;28;20071;-82
2023/12/15 15:01:23;;;;;;;9.05;2.58;;;;;;;20.22;100.00;101210.25;10549809;28;20151;-84
2023/12/15 15:06:49;;;;;;;7.38;2.33;;;;;;;20.20;100.00;101209.41;10548437;28;20058;-82
2023/12/15 15:12:11;;;;;;;9.40;3.83;;;;;;;20.24;100.00;101227.22;10555996;28;20051;-81
2023/12/15 15:17:34;;;;;;;11.40;5.28;;;;;;;20.14;100.00;101241.69;10555011;28;20036;-84
2023/12/15 15:22:58;;;;;;;7.45;2.08;;;;;;;20.15;100.00;101230.06;10544111;27;20040;-82
2023/12/15 15:28:20;;;;;;;7.40;2.50;;;;;;;20.03;100.00;101225.75;10535676;28;20200;-83
2023/12/15 15:33:43;;;;;;;5.72;2.30;;;;;;;19.84;100.00;101226.94;10559649;28;20468;-83
2023/12/15 15:39:08;;;;;;;8.32;1.95;;;;;;;19.74;100.00;101228.91;10562034;28;20056;-76
2023/12/15 15:44:31;;;;;;;9.40;2.08;;;;;;;19.82;100.00;101226.13;10576129;27;20048;-80
2023/12/15 15:49:55;;;;;;;8.52;2.30;;;;;;;19.71;100.00;101236.06;10561234;27;20055;-80
2023/12/15 15:55:19;;;;;;;7.22;2.20;;;;;;;19.78;100.00;101241.34;10577725;27;20426;-81
2023/12/15 16:00:42;;;;;;;7.90;2.35;;;;;;;19.76;100.00;101252.97;10589055;27;20112;-81
2023/12/15 16:06:05;;;;;;;6.57;2.15;;;;;;;19.82;100.00;101243.03;10590291;27;20046;-85
2023/12/15 16:11:29;;;;;;;7.10;2.03;;;;;;;19.94;100.00;101236.66;10602741;27;20047;-80
2023/12/15 16:16:51;;;;;;;4.05;1.77;;;;;;;19.89;100.00;101236.69;10591238;27;20493;-81
2023/12/15 16:22:14;;;;;;;9.38;2.50;;;;;;;19.80;100.00;101230.59;10581922;27;20047;-83
2023/12/15 16:27:38;;;;;;;4.30;2.00;;;;;;;19.79;100.00;101224.34;10593525;27;20051;-82
2023/12/15 16:33:02;;;;;;;4.03;1.92;;;;;;;19.73;100.00;101226.22;10582945;27;20459;-83
2023/12/15 16:38:25;;;;;;;8.35;2.40;;;;;;;19.62;100.00;101218.38;10586939;27;20107;-82
2023/12/15 16:43:49;;;;;;;7.18;1.85;;;;;;;19.59;100.00;101202.31;10587504;27;20035;-86
2023/12/15 16:49:12;;;;;;;7.45;2.03;;;;;;;19.45;100.00;101205.16;10576485;27;20054;-83
2023/12/15 16:54:35;;;;;;;7.50;2.25;;;;;;;19.50;100.00;101191.72;10587886;27;20042;-82
2023/12/15 16:59:59;;;;;;;5.43;2.05;;;;;;;19.56;100.00;101197.00;10587098;27;20053;-83
2023/12/15 17:05:22;;;;;;;4.05;1.98;;;;;;;19.63;100.00;101213.84;10587637;27;20039;-82
2023/12/15 17:10:46;;;;;;;4.80;1.98;;;;;;;19.69;100.00;101208.44;10585494;28;20086;-84
2023/12/15 17:16:18;;;;;;;4.93;1.98;;;;;;;19.69;100.00;101200.41;10571445;28;20040;-84
2023/12/15 17:21:40;;;;;;;4.80;1.90;;;;;;;19.66;100.00;101195.97;10598092;27;20517;-83
2023/12/15 17:27:03;;;;;;;6.22;1.30;;;;;;;19.75;100.00;101200.31;10590799;27;20043;-83
2023/12/15 17:32:29;;;;;;;6.40;1.83;;;;;;;19.63;100.00;101187.97;10569901;27;20374;-81
2023/12/15 17:37:52;;;;;;;6.93;1.75;;;;;;;19.65;100.00;101185.25;10572584;27;20519;-82
2023/12/15 17:43:17;;;;;;;2.88;1.58;;;;;;;19.64;100.00;101189.75;10583110;27;20488;-82
2023/12/15 17:48:40;;;;;;;3.17;1.48;;;;;;;19.72;100.00;101166.41;10586173;27;20043;-82
2023/12/15 17:54:13;;;;;;;5.63;1.42;;;;;;;19.67;100.00;101168.28;10586918;27;20043;-83
2023/12/15 17:59:36;;;;;;;3.83;1.30;;;;;;;19.56;100.00;101166.66;10585553;27;20180;-81
2023/12/15 18:05:00;;;;;;;3.92;1.25;;;;;;;19.47;100.00;101138.22;10562851;27;20096;-87
2023/12/15 18:10:25;;;;;;;4.95;1.45;;;;;;;19.62;100.00;101163.91;10583246;27;20043;-80
2023/12/15 18:15:47;;;;;;;5.68;1.80;;;;;;;19.62;100.00;101140.69;10569565;27;20514;-79
2023/12/15 18:21:13;;;;;;;5.68;1.55;;;;;;;19.53;100.00;101161.34;10587696;27;20593;-81
2023/12/15 18:26:37;;;;;;;8.18;1.80;;;;;;;19.45;100.00;101151.59;10601115;27;20130;-82
2023/12/15 18:32:01;;;;;;;5.32;1.42;;;;;;;19.49;100.00;101182.81;10600150;27;20039;-80
2023/12/15 18:37:25;;;;;;;8.27;2.08;;;;;;;19.44;100.00;101181.06;10600464;27;20561;-78
2023/12/15 18:42:49;;;;;;;7.50;1.25;;;;;;;19.42;100.00;101172.19;10624266;27;20051;-83
2023/12/15 18:48:13;;;;;;;6.60;1.60;;;;;;;19.38;100.00;101162.41;10593029;27;20420;-80
2023/12/15 18:53:37;;;;;;;3.20;1.55;;;;;;;19.34;100.00;101177.66;10603076;27;20050;-82
2023/12/15 18:58:59;;;;;;;3.85;1.38;;;;;;;19.37;100.00;101190.09;10586591;27;20051;-81
2023/12/15 19:04:23;;;;;;;7.00;1.45;;;;;;;19.36;100.00;101189.19;10592667;27;20514;-81
2023/12/15 19:09:47;;;;;;;4.85;1.67;;;;;;;19.30;100.00;101183.94;10562652;27;20048;-81
2023/12/15 19:15:11;;;;;;;6.05;1.60;;;;;;;19.29;100.00;101189.34;10597661;27;20066;-77
2023/12/15 19:20:33;;;;;;;7.60;1.90;;;;;;;19.25;100.00;101171.53;10563973;27;20112;-79
2023/12/15 19:25:58;;;;;;;5.10;1.23;;;;;;;19.25;100.00;101161.69;10579185;27;20040;-81
2023/12/15 19:31:20;;;;;;;4.80;1.73;;;;;;;19.29;100.00;101168.81;10595192;27;20051;-85
2023/12/15 19:36:43;;;;;;;2.97;1.35;;;;;;;19.24;100.00;101183.13;10569014;27;20751;-81
2023/12/15 19:42:07;;;;;;;3.60;1.15;;;;;;;19.24;100.00;101191.16;10562954;27;20056;-83
2023/12/15 19:47:30;;;;;;;6.32;1.50;;;;;;;19.25;100.00;101193.81;10581945;27;20536;-82
2023/12/15 19:52:53;;;;;;;3.05;1.38;;;;;;;19.27;100.00;101188.47;10566544;27;20047;-78
2023/12/15 19:58:17;;;;;;;6.07;1.23;;;;;;;19.19;100.00;101201.03;10569038;27;20561;-80
2023/12/15 20:03:39;;;;;;;5.05;1.40;;;;;;;19.04;100.00;101197.66;10602017;27;20100;-82
2023/12/15 20:09:04;;;;;;;4.57;1.60;;;;;;;19.04;100.00;101196.75;10549264;27;20052;-81
2023/12/15 20:14:28;;;;;;;4.85;1.27;;;;;;;19.04;100.00;101211.03;10569681;27;20051;-85
2023/12/15 20:19:54;;;;;;;5.85;1.13;;;;;;;19.00;100.00;101217.34;10583470;27;20050;-81
2023/12/15 20:25:17;;;;;;;5.57;1.65;;;;;;;19.00;100.00;101220.00;10558252;27;20045;-82
2023/12/15 20:30:41;;;;;;;6.45;1.63;;;;;;;18.99;100.00;101209.31;10578507;27;20503;-83
2023/12/15 20:36:03;;;;;;;6.53;1.48;;;;;;;19.03;100.00;101232.47;10583218;27;20559;-83
2023/12/15 20:41:26;;;;;;;4.95;1.65;;;;;;;19.04;100.00;101205.69;10597737;27;20054;-82
2023/12/15 20:46:52;;;;;;;5.97;1.50;;;;;;;19.14;100.00;101217.19;10571360;27;20047;-82
2023/12/15 20:52:16;;;;;;;3.30;1.40;;;;;;;19.20;100.00;101230.47;10568667;27;20055;-81
2023/12/15 20:57:39;;;;;;;6.53;1.45;;;;;;;19.12;100.00;101224.31;10567530;28;20063;-82
2023/12/15 21:03:04;;;;;;;5.82;1.50;;;;;;;19.04;100.00;101251.19;10564475;27;20149;-81
2023/12/15 21:08:26;;;;;;;4.50;1.48;;;;;;;19.08;100.00;101258.28;10588643;27;20051;-81
2023/12/15 21:13:51;;;;;;;5.95;1.63;;;;;;;19.02;100.00;101250.31;10588012;28;20104;-81
2023/12/15 21:19:15;;;;;;;5.00;1.33;;;;;;;18.87;100.00;101255.84;10576891;28;20051;-81
2023/12/15 21:24:37;;;;;;;5.68;1.80;;;;;;;18.74;100.00;101239.94;10588637;28;20051;-81
2023/12/15 21:30:00;;;;;;;6.72;1.65;;;;;;;18.79;100.00;101243.44;10592923;27;20443;-82
2023/12/15 21:35:31;;;;;;;6.65;1.60;;;;;;;18.81;100.00;101233.59;10568401;28;20048;-81
2023/12/15 21:40:55;;;;;;;4.45;1.60;;;;;;;18.69;100.00;101232.84;10581298;28;20039;-81
2023/12/15 21:46:19;;;;;;;5.00;1.45;;;;;;;18.68;100.00;101224.84;10569422;28;20512;-81
2023/12/15 21:51:46;;;;;;;5.00;1.50;;;;;;;18.64;100.00;101207.91;10581850;28;20411;-81
2023/12/15 21:57:13;;;;;;;6.35;1.55;;;;;;;18.57;100.00;101216.03;10576630;28;20082;-81
2023/12/15 22:02:37;;;;;;;6.40;1.85;;;;;;;18.59;100.00;101208.88;10553889;28;20055;-81
2023/12/15 22:08:02;;;;;;;8.15;1.90;;;;;;;18.50;100.00;101190.22;10576282;27;20047;-82
2023/12/15 22:13:27;;;;;;;7.63;2.35;;;;;;;18.47;100.00;101198.25;10593970;27;20047;-82
2023/12/15 22:18:53;;;;;;;6.10;1.48;;;;;;;18.74;100.00;101186.44;10578669;27;20465;-82
2023/12/15 22:24:17;;;;;;;6.75;1.75;;;;;;;18.78;100.00;101190.81;10592799;27;20047;-82
2023/12/15 22:29:40;;;;;;;5.78;1.90;;;;;;;18.82;100.00;101196.16;10590786;27;20052;-83
2023/12/15 22:35:08;;;;;;;6.40;2.17;;;;;;;18.84;100.00;101186.28;10582060;27;20066;-81
2023/12/15 22:40:36;;;;;;;3.45;1.70;;;;;;;18.89;100.00;101170.22;10575544;27;20053;-80
2023/12/15 22:46:03;;;;;;;9.35;1.50;;;;;;;18.74;100.00;101183.75;10559200;27;20058;-81
2023/12/15 22:51:26;;;;;;;2.72;1.55;;;;;;;18.81;100.00;101175.66;10543204;28;20056;-80
2023/12/15 22:56:50;;;;;;;7.55;1.77;;;;;;;18.92;100.00;101167.47;10569533;28;20074;-81
2023/12/15 23:02:18;;;;;;;5.78;1.65;;;;;;;18.86;100.00;101160.41;10551782;28;20093;-81
2023/12/15 23:07:41;;;;;;;5.05;1.50;;;;;;;19.02;100.00;101162.00;10572307;28;20036;-81
2023/12/15 23:13:07;;;;;;;4.45;1.65;;;;;;;19.11;100.00;101187.75;10543847;28;20051;-81
2023/12/15 23:18:32;;;;;;;7.70;1.73;;;;;;;18.93;100.00;101180.84;10535867;28;20062;-83
2023/12/15 23:23:54;;;;;;;5.55;1.83;;;;;;;18.77;100.00;101165.91;10559160;28;20456;-85
2023/12/15 23:29:19;;;;;;;5.05;1.60;;;;;;;18.78;100.00;101175.66;10550216;28;20047;-81
2023/12/15 23:34:42;;;;;;;5.30;1.85;;;;;;;18.94;100.00;101192.44;10553631;28;20048;-82
2023/12/15 23:40:06;;;;;;;6.00;1.90;;;;;;;18.82;100.00;101198.81;10531785;28;20493;-83
2023/12/15 23:45:31;;;;;;;5.10;2.13;;;;;;;18.85;100.00;101197.88;10566071;28;20089;-82
2023/12/15 23:50:56;;;;;;;6.40;2.33;;;;;;;18.79;100.00;101193.50;10545864;28;20511;-82
2023/12/15 23:56:18;;;;;;;5.97;1.92;;;;;;;18.72;100.00;101197.13;10550401;28;20515;-82
